Costa Pacifica — ICJA — position and weather

sailwx.info

Track history (hours):
 
Tides and Currents Weather Stations Pressure Air Temp Water Temp Dewpoint Dewpoint Depression Visibility Wind Speed Wind Dir Waves Ship Positions

Costa Pacifica

Last reported at 2018-Sep-19 03:03 UTC. Time now 2018-Sep-19 03:25 UTC.
Position N 28°39' W 015°40'.

Length 290 m; draft 8.3 m.

Type: Ship. MMSI: 247258100.

Date/timePositionNaut miles runAvg speedWind from/ knotsBaromVisibWave heightAir tempDewpointWater temp
2018-Sep-19 03:03N 28°39' W 015°40'113.7
2018-Sep-19 02:59N 28°39' W 015°38'713.7
2018-Sep-19 02:30N 28°40' W 015°31'613.8
2018-Sep-19 02:03N 28°41' W 015°24'113.8
2018-Sep-19 02:00N 28°41' W 015°23'713.7
2018-Sep-19 01:30N 28°41' W 015°15'613.4
2018-Sep-19 01:03N 28°42' W 015°09'113.2
2018-Sep-19 01:00N 28°42' W 015°08'6391.8
2018-Sep-19 01:00N 28°36' W 015°06'817.4 060 / 181010.110.8 22.020.524.0
2018-Sep-19 00:30N 28°43' W 015°00'613.3
2018-Sep-19 00:03N 28°43' W 014°53'113.2
2018-Sep-19 00:00N 28°43' W 014°53'713.3
2018-Sep-18 23:30N 28°44' W 014°45'612.9
2018-Sep-18 23:03N 28°45' W 014°38'113.0
2018-Sep-18 22:59N 28°45' W 014°38'713.3
2018-Sep-18 22:30N 28°45' W 014°30'713.5
2018-Sep-18 22:01N 28°46' W 014°23'012.9
2018-Sep-18 22:00N 28°46' W 014°23'913.6
2018-Sep-18 21:19N 28°47' W 014°12'413.7
2018-Sep-18 21:02N 28°47' W 014°08'113.9
2018-Sep-18 21:00N 28°47' W 014°07'714.1
2018-Sep-18 20:30N 28°48' W 013°59'714.0
2018-Sep-18 20:02N 28°48' W 013°52'240.8
2018-Sep-18 20:00N 28°48' W 013°54'3181.5 020 / 301013.1 23.019.924.0
2018-Sep-18 19:59N 28°48' W 013°51'613.6
2018-Sep-18 19:31N 28°49' W 013°44'613.1
2018-Sep-18 19:03N 28°52' W 013°38'1842874.9
2018-Sep-18 19:00N 25°48' W 013°30'186735.2 090 / 181009.1 5.4 24.022.524.0
2018-Sep-18 18:44N 28°54' W 013°34'311.3
2018-Sep-18 18:28N 28°56' W 013°32'2 3.1
2018-Sep-18 17:55N 28°58' W 013°32'0 0.0
2018-Sep-18 17:06N 28°58' W 013°32'0 0.0
2018-Sep-18 16:48N 28°58' W 013°32'0 0.0
2018-Sep-18 16:30N 28°58' W 013°32'0 0.0
2018-Sep-18 14:11N 28°58' W 013°32'0 0.0
2018-Sep-18 13:47N 28°58' W 013°32'0 0.0
2018-Sep-18 13:29N 28°58' W 013°32'0 0.0
2018-Sep-18 12:59N 28°58' W 013°32'0 0.0
2018-Sep-18 12:28N 28°58' W 013°32'4 9.1
2018-Sep-18 12:00N 28°54' W 013°30'410.6 090 / 201009.110.8 23.018.324.0
2018-Sep-18 11:35N 28°58' W 013°32'0 0.0
2018-Sep-18 11:30N 28°58' W 013°32'1 3.3
2018-Sep-18 11:03N 28°57' W 013°32'0 7.3
2018-Sep-18 11:00N 28°56' W 013°32'4 7.9
2018-Sep-18 10:30N 28°54' W 013°28'716.1
2018-Sep-18 10:03N 28°60' W 013°23'118.8
2018-Sep-18 10:00N 29°00' W 013°22'918.9
2018-Sep-18 09:30N 29°08' W 013°16'3321.7
2018-Sep-18 08:00N 29°30' W 012°48'2423.8 010 / 131012.110.8 22.018.924.0
2018-Sep-18 07:00N 29°48' W 012°30'8416.8 360 / 191008.1 5.4 22.020.522.0
2018-Sep-18 02:00N 30°54' W 011°30'13819.8 360 / 141008.110.8 22.020.522.0
2018-Sep-17 19:00N 32°42' W 009°48'3517.4 330 / 191010.1 23.019.924.0
2018-Sep-17 17:00N 33°06' W 009°18'6220.8 320 / 201005.110.8 24.022.524.0
2018-Sep-17 14:00N 33°54' W 008°30'13419.2 330 / 251007.110.8 24.019.425.0
2018-Sep-17 07:00N 35°30' W 006°36'2823.1 080 / 51011.110.8 22.018.925.0
2018-Sep-17 05:47N 35°49' W 006°11'519.4
2018-Sep-17 05:30N 35°52' W 006°05'919.2
2018-Sep-17 05:03N 35°56' W 005°56'119.7
2018-Sep-17 04:59N 35°56' W 005°54'1020.2
2018-Sep-17 04:28N 35°57' W 005°41'819.4
2018-Sep-17 04:03N 35°58' W 005°32'119.4
2018-Sep-17 04:00N 35°58' W 005°30'1019.1
2018-Sep-17 03:30N 36°01' W 005°19'918.9
2018-Sep-17 03:03N 36°03' W 005°09'119.1
2018-Sep-17 03:00N 36°03' W 005°08'4238.7
2018-Sep-17 03:00N 36°00' W 005°06'7819.6 050 / 181009.1 5.4 23.021.524.0
2018-Sep-16 23:00N 36°12' W 003°30'7919.8 050 / 121011.110.8 24.021.025.0
2018-Sep-16 19:00N 36°30' W 001°54'3417.0 050 / 141016.1 24.021.025.0
2018-Sep-16 17:00N 36°54' W 001°24'2517.6 050 / 161011.1 5.4 25.023.624.0
2018-Sep-16 15:34N 37°13' W 001°04'119.0
2018-Sep-16 15:30N 37°14' W 001°03'919.3
2018-Sep-16 15:03N 37°20' W 000°54'119.6
2018-Sep-16 15:00N 37°21' W 000°53'1019.6
2018-Sep-16 14:30N 37°27' W 000°44'1919.3
2018-Sep-16 13:30N 37°41' W 000°28'919.9
2018-Sep-16 13:03N 37°48' W 000°21'120.0
2018-Sep-16 12:59N 37°50' W 000°20'1020.0
2018-Sep-16 12:28N 37°58' W 000°13'3322.1
2018-Sep-16 11:00N 38°24' E 000°12'5116.8 010 / 201013.110.8 24.019.427.0
2018-Sep-16 08:00N 39°06' E 000°48'9118.2 060 / 81016.110.8 24.021.027.0
2018-Sep-16 03:00N 40°18' E 002°00'5627.8 220 / 151005.1 5.4 23.021.524.0
2018-Sep-16 01:00N 41°00' E 002°48'8216.5 340 / 31013.110.8 23.016.526.0
2018-Sep-15 20:00N 42°06' E 003°54'5424.6 280 / 131016.1 22.018.924.0
2018-Sep-15 17:49N 42°48' E 004°39'619.7
2018-Sep-15 17:30N 42°53' E 004°44'1419.4
2018-Sep-15 16:48N 43°03' E 004°57'519.1
2018-Sep-15 16:31N 43°07' E 005°02'918.9
2018-Sep-15 16:03N 43°14' E 005°10'118.7
2018-Sep-15 16:01N 43°14' E 005°10'4232.7
2018-Sep-15 16:00N 43°12' E 005°06'1225.0 220 / 151008.1 5.4 25.023.625.0
2018-Sep-15 15:30N 43°20' E 005°18'1 3.0
2018-Sep-15 15:00N 43°21' E 005°20'0 0.0
2018-Sep-15 14:27N 43°21' E 005°20'0 0.0
2018-Sep-15 14:00N 43°21' E 005°20'0 0.0
2018-Sep-15 13:29N 43°21' E 005°20'0 0.0
2018-Sep-15 13:02N 43°21' E 005°20'0 0.0
2018-Sep-15 12:59N 43°21' E 005°20'0 0.0
2018-Sep-15 12:26N 43°21' E 005°20'0 0.0
2018-Sep-15 11:59N 43°21' E 005°20'0 0.0
2018-Sep-15 11:29N 43°21' E 005°20'0 0.0
2018-Sep-15 10:58N 43°21' E 005°20'0 0.0
2018-Sep-15 10:25N 43°21' E 005°20'3 7.2
2018-Sep-15 10:00N 43°18' E 005°18'323.8 320 / 71017.127.0 24.021.024.0
2018-Sep-15 09:52N 43°21' E 005°20'0 0.0
2018-Sep-15 09:28N 43°21' E 005°20'0 0.0
2018-Sep-15 09:04N 43°21' E 005°20'0 0.0
2018-Sep-15 08:57N 43°21' E 005°20'0 0.0
2018-Sep-15 08:30N 43°21' E 005°20'0 0.0
2018-Sep-15 08:03N 43°21' E 005°20'0 0.0
2018-Sep-15 08:00N 43°21' E 005°20'0 0.0
2018-Sep-15 07:29N 43°21' E 005°20'0 0.0
2018-Sep-15 07:02N 43°21' E 005°20'0 0.0
2018-Sep-15 06:59N 43°21' E 005°20'0 0.0
2018-Sep-15 06:26N 43°21' E 005°20'0 0.0
2018-Sep-15 06:02N 43°21' E 005°20'0 0.0
2018-Sep-15 05:59N 43°21' E 005°20'0 0.4
2018-Sep-15 05:30N 43°21' E 005°20'2 4.2
2018-Sep-15 05:03N 43°21' E 005°17'0 9.3
2018-Sep-15 05:00N 43°21' E 005°17'5 9.9
2018-Sep-15 04:31N 43°16' E 005°13'3413.5
2018-Sep-15 02:00N 42°54' E 005°48'3517.6 320 / 201009.1 5.4 24.022.524.0
2018-Sep-15 00:00N 42°54' E 006°36'626.8 360 / 101009.110.8 24.021.025.0
2018-Sep-14 23:45N 42°60' E 006°40'415.1
2018-Sep-14 23:30N 43°02' E 006°44'715.0
2018-Sep-14 23:03N 43°06' E 006°52'115.0
2018-Sep-14 23:00N 43°06' E 006°52'814.9
2018-Sep-14 22:30N 43°11' E 007°00'614.5
2018-Sep-14 22:04N 43°15' E 007°07'114.4
2018-Sep-14 22:01N 43°15' E 007°08'714.3
2018-Sep-14 21:30N 43°19' E 007°16'613.9
2018-Sep-14 21:03N 43°23' E 007°23'113.7
2018-Sep-14 21:01N 43°24' E 007°24'714.1
2018-Sep-14 20:31N 43°28' E 007°32'614.3
2018-Sep-14 20:04N 43°32' E 007°39'114.5
2018-Sep-14 20:00N 43°32' E 007°40'714.3
2018-Sep-14 19:30N 43°36' E 007°47'614.1
2018-Sep-14 19:03N 43°40' E 007°54'113.8
2018-Sep-14 19:00N 43°41' E 007°55'2101.0
2018-Sep-14 19:00N 43°42' E 007°54'714.1 160 / 11014.1 24.021.026.0
2018-Sep-14 18:30N 43°45' E 008°03'614.1
2018-Sep-14 18:04N 43°49' E 008°10'114.2
2018-Sep-14 18:01N 43°49' E 008°11'714.2
2018-Sep-14 17:31N 43°53' E 008°18'613.9
2018-Sep-14 17:03N 43°59' E 008°23'113.2
2018-Sep-14 17:00N 43°59' E 008°23'156.5
2018-Sep-14 17:00N 44°00' E 008°24'4 8.6 140 / 71008.1 5.4 25.023.626.0
2018-Sep-14 16:30N 44°03' E 008°27'714.6
2018-Sep-14 16:03N 44°09' E 008°32'118.4
2018-Sep-14 16:01N 44°10' E 008°33'714.4
2018-Sep-14 15:30N 44°17' E 008°32'3 6.0
2018-Sep-14 15:03N 44°19' E 008°30'0 4.2
2018-Sep-14 15:00N 44°19' E 008°30'0 0.9
2018-Sep-14 14:30N 44°19' E 008°29'0 0.0
2018-Sep-14 14:00N 44°19' E 008°29'0 0.0
2018-Sep-14 13:30N 44°19' E 008°29'0 0.0
2018-Sep-14 13:02N 44°19' E 008°29'0 0.0
2018-Sep-14 12:59N 44°19' E 008°29'0 0.0
2018-Sep-14 12:29N 44°19' E 008°29'0 0.0
2018-Sep-14 12:02N 44°19' E 008°29'0 0.0
2018-Sep-14 11:59N 44°19' E 008°29'0 0.0
2018-Sep-14 11:29N 44°19' E 008°29'0 0.0
2018-Sep-14 11:01N 44°19' E 008°29'4115.5
2018-Sep-14 11:00N 44°18' E 008°24'4219.8 160 / 71009.110.8 25.013.125.0
2018-Sep-14 10:58N 44°19' E 008°29'0 0.0
2018-Sep-14 10:28N 44°19' E 008°29'0 0.0
2018-Sep-14 10:01N 44°19' E 008°29'0 0.0
2018-Sep-14 09:58N 44°19' E 008°29'0 0.0
2018-Sep-14 09:28N 44°19' E 008°29'0 0.0
2018-Sep-14 09:01N 44°19' E 008°29'0 0.0
2018-Sep-14 08:55N 44°19' E 008°29'0 0.0
2018-Sep-14 08:30N 44°19' E 008°29'0 0.0
2018-Sep-14 08:03N 44°19' E 008°29'0 0.0
2018-Sep-14 08:00N 44°19' E 008°29'0 0.0
2018-Sep-14 07:30N 44°19' E 008°29'0 0.0
2018-Sep-14 07:03N 44°19' E 008°29'0 0.0
2018-Sep-14 07:00N 44°19' E 008°29'41135.8
2018-Sep-14 07:00N 44°18' E 008°24'4 8.9 200 / 21008.1 25.022.027.0
2018-Sep-14 06:30N 44°19' E 008°30'3 7.8
2018-Sep-14 06:03N 44°16' E 008°33'118.0
2018-Sep-14 06:00N 44°15' E 008°33'1019.2
2018-Sep-14 05:31N 44°07' E 008°27'919.2
2018-Sep-14 05:04N 43°59' E 008°20'119.1
2018-Sep-14 05:01N 43°59' E 008°20'918.7
2018-Sep-14 04:31N 43°52' E 008°11'818.8
2018-Sep-14 04:04N 43°46' E 008°02'118.7
2018-Sep-14 04:00N 43°46' E 008°01'919.0
2018-Sep-14 03:31N 43°39' E 007°52'919.1
2018-Sep-14 03:03N 43°32' E 007°44'118.9
2018-Sep-14 03:01N 43°32' E 007°43'1019.1
2018-Sep-14 02:31N 43°25' E 007°34'918.9
2018-Sep-14 02:03N 43°19' E 007°26'118.6
2018-Sep-14 02:00N 43°18' E 007°25'032.1
2018-Sep-14 02:00N 43°18' E 007°24'918.5 090 / 121008.1 5.4 23.021.523.0
2018-Sep-14 01:31N 43°12' E 007°15'919.1
2018-Sep-14 01:04N 43°06' E 007°06'119.0
2018-Sep-14 01:00N 43°06' E 007°05'146.7
2018-Sep-14 01:00N 43°06' E 007°06'1021.3 040 / 51007.110.8 24.021.025.0
2018-Sep-14 00:30N 42°59' E 006°56'919.3
2018-Sep-14 00:03N 42°53' E 006°47'219.2
2018-Sep-13 23:58N 42°52' E 006°45'919.1
2018-Sep-13 23:30N 42°49' E 006°34'1019.2
2018-Sep-13 22:58N 42°44' E 006°21'919.2
2018-Sep-13 22:30N 42°40' E 006°10'7722.1
2018-Sep-13 19:00N 42°06' E 004°36'3618.0 320 / 261012.1 24.021.027.0
2018-Sep-13 17:00N 41°48' E 003°54'6621.9 300 / 141010.110.8 24.021.020.0
2018-Sep-13 14:00N 41°18' E 002°36'822.8 260 / 151008.110.8 24.015.822.0
2018-Sep-13 13:39N 41°25' E 002°41'319.2
2018-Sep-13 13:31N 41°24' E 002°38'919.4
2018-Sep-13 13:04N 41°20' E 002°28'119.3
2018-Sep-13 13:01N 41°20' E 002°26'918.9
2018-Sep-13 12:30N 41°15' E 002°15'511.5
2018-Sep-13 12:04N 41°19' E 002°10'111.4
2018-Sep-13 12:01N 41°20' E 002°10'2 3.5
2018-Sep-13 11:31N 41°21' E 002°11'0 0.0
2018-Sep-13 11:03N 41°21' E 002°11'0 0.0
2018-Sep-13 11:00N 41°21' E 002°11'0 0.0
2018-Sep-13 10:30N 41°21' E 002°11'0 0.0
2018-Sep-13 10:00N 41°21' E 002°11'0 0.0
2018-Sep-13 09:27N 41°21' E 002°11'0 0.0
2018-Sep-13 09:02N 41°21' E 002°11'0 0.0
2018-Sep-13 08:56N 41°21' E 002°11'0 0.0
2018-Sep-13 08:29N 41°21' E 002°11'193389.0
2018-Sep-13 08:00N 41°18' W 002°06'19323915.7 260 / 21011.127.0 24.021.026.0
2018-Sep-13 07:59N 41°21' E 002°11'0 0.0
2018-Sep-13 07:29N 41°21' E 002°11'0 0.0
2018-Sep-13 07:02N 41°21' E 002°11'0 0.0
2018-Sep-13 06:59N 41°21' E 002°11'0 0.0
2018-Sep-13 06:28N 41°21' E 002°11'0 0.0
2018-Sep-13 06:01N 41°21' E 002°11'0 0.0
2018-Sep-13 05:58N 41°21' E 002°11'0 0.8
2018-Sep-13 05:30N 41°21' E 002°10'2 3.4
2018-Sep-13 05:03N 41°19' E 002°10'0 7.4
2018-Sep-13 05:00N 41°19' E 002°10'4 8.0
2018-Sep-13 04:30N 41°15' E 002°12'511.9
2018-Sep-13 04:03N 41°10' E 002°09'113.0
2018-Sep-13 04:00N 41°10' E 002°09'713.4
2018-Sep-13 03:30N 41°04' E 002°05'613.3
2018-Sep-13 03:03N 40°58' E 002°01'113.2
2018-Sep-13 03:00N 40°58' E 002°00'4324.4
2018-Sep-13 03:00N 40°54' E 002°00'5 8.1 090 / 151011.1 5.4 25.023.623.0
2018-Sep-13 02:22N 40°50' E 001°55'613.5
2018-Sep-13 01:57N 40°45' E 001°52'713.9
2018-Sep-13 01:28N 40°39' E 001°48'511.7
2018-Sep-13 01:00N 40°36' E 001°42'14323.8 360 / 21011.110.8 25.018.826.0
2018-Sep-12 19:00N 39°18' W 000°54'7436.9 180 / 161016.110.8 25.022.028.0
2018-Sep-12 17:00N 38°54' E 000°36'2212.2 140 / 151015.1 5.4 25.023.527.0
2018-Sep-12 15:09N 38°35' E 000°22'212.8
2018-Sep-12 15:00N 38°33' E 000°20'1613.3
2018-Sep-12 13:48N 38°20' E 000°09'513.4
2018-Sep-12 13:27N 38°16' E 000°06'913.3
2018-Sep-12 12:47N 38°08' W 000°01'413.2
2018-Sep-12 12:29N 38°05' W 000°04'613.1
2018-Sep-12 12:03N 38°00' W 000°08'696.3
2018-Sep-12 12:00N 38°00' E 000°00'7419.9 080 / 101015.110.8 25.017.026.0
2018-Sep-12 11:59N 37°60' W 000°08'612.9
2018-Sep-12 11:29N 37°54' W 000°13'612.8
2018-Sep-12 11:03N 37°50' W 000°17'112.6
2018-Sep-12 11:00N 37°49' W 000°17'712.7
2018-Sep-12 10:29N 37°44' W 000°22'512.6
2018-Sep-12 10:03N 37°39' W 000°26'112.7
2018-Sep-12 10:00N 37°39' W 000°26'612.8
2018-Sep-12 09:30N 37°34' W 000°31'612.7
2018-Sep-12 09:03N 37°29' W 000°36'112.7
2018-Sep-12 09:00N 37°29' W 000°36'612.4
2018-Sep-12 08:30N 37°25' W 000°42'512.2
2018-Sep-12 08:03N 37°21' W 000°47'112.0
2018-Sep-12 08:00N 37°21' W 000°48'6369.8
2018-Sep-12 08:00N 37°24' W 000°42'1223.6 060 / 161018.1 5.4 27.024.127.0
2018-Sep-12 07:30N 37°17' W 000°54'512.3
2018-Sep-12 07:03N 37°13' W 000°59'112.3
2018-Sep-12 07:00N 37°13' W 000°59'612.3
2018-Sep-12 06:30N 37°09' W 001°05'6612.0
2018-Sep-12 01:00N 36°24' W 002°06'7712.9 060 / 201013.110.8 25.022.024.0
2018-Sep-11 19:00N 36°30' W 003°42'3014.8 050 / 121018.1 24.021.024.0
2018-Sep-11 17:00N 36°36' W 004°18'8 1.9 080 / 21011.110.8 23.021.520.0
2018-Sep-11 13:00N 36°42' W 004°24'0 0.0 150 / 71011.110.8 27.015.721.0
2018-Sep-11 09:00N 36°42' W 004°24'19 3.7 110 / 21018.127.0 26.023.123.0
2018-Sep-11 04:00N 36°24' W 004°18'2010.2 080 / 31010.110.8 23.019.919.0
2018-Sep-11 02:00N 36°06' W 004°06'41 8.7 100 / 181011.110.8 23.019.922.0
2018-Sep-10 21:15N 35°57' W 004°56'313.1
2018-Sep-10 21:00N 35°54' W 004°54'831.7 060 / 191018.1 23.019.921.0
2018-Sep-10 20:45N 35°58' W 005°03'310.9
2018-Sep-10 20:30N 35°58' W 005°06'511.2
2018-Sep-10 20:02N 35°59' W 005°12'011.4
2018-Sep-10 20:00N 35°59' W 005°13'611.6
2018-Sep-10 19:30N 35°59' W 005°20'613.7
2018-Sep-10 19:03N 35°57' W 005°27'114.2
2018-Sep-10 19:00N 35°57' W 005°28'812.8
2018-Sep-10 18:21N 35°54' W 005°38'15 2.0
2018-Sep-10 11:00N 35°42' W 005°48'56 9.4 040 / 91018.127.0 24.021.021.0
2018-Sep-10 05:00N 36°00' W 006°54'3731.9 050 / 231010.1 5.4 22.018.918.0
2018-Sep-10 03:50N 36°10' W 007°38'721.4
2018-Sep-10 03:30N 36°13' W 007°46'1021.2
2018-Sep-10 03:03N 36°16' W 007°57'121.3
2018-Sep-10 03:00N 36°17' W 007°58'1121.4
2018-Sep-10 02:29N 36°20' W 008°11'611.2
2018-Sep-10 02:00N 36°18' W 008°18'996.1 030 / 151011.110.8 21.017.822.0
2018-Sep-10 01:54N 36°24' W 008°27'821.4
2018-Sep-10 01:30N 36°26' W 008°37'1021.5
2018-Sep-10 01:03N 36°29' W 008°48'121.5
2018-Sep-10 01:00N 36°29' W 008°49'1121.3
2018-Sep-10 00:30N 36°32' W 009°02'920.8
2018-Sep-10 00:03N 36°34' W 009°14'119.2
2018-Sep-10 00:00N 36°35' W 009°15'918.9
2018-Sep-09 23:30N 36°41' W 009°24'919.2
2018-Sep-09 23:03N 36°47' W 009°31'119.4
2018-Sep-09 23:00N 36°48' W 009°32'1019.8
2018-Sep-09 22:30N 36°57' W 009°35'919.8
2018-Sep-09 22:03N 37°06' W 009°34'120.2
2018-Sep-09 22:00N 37°07' W 009°34'1019.9
2018-Sep-09 21:30N 37°17' W 009°32'920.0
2018-Sep-09 21:03N 37°26' W 009°32'120.4
2018-Sep-09 21:00N 37°27' W 009°32'1020.4
2018-Sep-09 20:30N 37°37' W 009°30'920.6
2018-Sep-09 20:03N 37°46' W 009°29'120.5
2018-Sep-09 20:00N 37°47' W 009°29'5342.8
2018-Sep-09 20:00N 37°42' W 009°30'1632.0 360 / 271017.1 18.014.622.0
2018-Sep-09 19:30N 37°57' W 009°28'919.9
2018-Sep-09 19:03N 38°06' W 009°27'120.1
2018-Sep-09 19:00N 38°07' W 009°26'5315.3
2018-Sep-09 19:00N 38°12' W 009°24'511.2 350 / 291010.1 5.4 25.022.019.0
2018-Sep-09 18:30N 38°17' W 009°25'920.0
2018-Sep-09 18:03N 38°26' W 009°24'119.6
2018-Sep-09 18:00N 38°27' W 009°24'1019.7
2018-Sep-09 17:30N 38°37' W 009°22'817.5
2018-Sep-09 17:03N 38°41' W 009°14'112.1
2018-Sep-09 17:00N 38°41' W 009°13'4 8.9
2018-Sep-09 16:30N 38°43' W 009°08'0 0.1
2018-Sep-09 16:03N 38°43' W 009°08'0 0.1
2018-Sep-09 16:00N 38°43' W 009°08'0 0.0
2018-Sep-09 15:30N 38°43' W 009°08'0 0.0
2018-Sep-09 15:03N 38°43' W 009°08'0 0.0
2018-Sep-09 15:00N 38°43' W 009°08'0 0.0
2018-Sep-09 14:30N 38°43' W 009°08'0 0.0
2018-Sep-09 13:59N 38°43' W 009°08'0 0.0
2018-Sep-09 13:29N 38°43' W 009°08'1 2.7
2018-Sep-09 13:00N 38°42' W 009°06'1176.7 350 / 51011.110.8 24.015.819.0
2018-Sep-09 12:59N 38°43' W 009°08'0 0.0
2018-Sep-09 12:29N 38°43' W 009°08'0 0.0
2018-Sep-09 12:02N 38°43' W 009°08'0 0.0
2018-Sep-09 11:59N 38°43' W 009°08'0 0.0
2018-Sep-09 11:28N 38°43' W 009°08'0 0.0
2018-Sep-09 11:01N 38°43' W 009°08'0 0.0
2018-Sep-09 10:58N 38°43' W 009°08'0 0.0
2018-Sep-09 10:28N 38°43' W 009°08'0 0.0
2018-Sep-09 10:01N 38°43' W 009°08'164.5
2018-Sep-09 10:00N 38°42' W 009°06'143.9 060 / 61018.127.0 19.015.622.0
2018-Sep-09 09:58N 38°43' W 009°08'0 0.0
2018-Sep-09 09:30N 38°43' W 009°08'0 0.0
2018-Sep-09 09:00N 38°43' W 009°08'0 0.0
2018-Sep-09 08:30N 38°43' W 009°08'0 0.0
2018-Sep-09 08:03N 38°43' W 009°08'0 0.0
2018-Sep-09 08:00N 38°43' W 009°08'0 0.0
2018-Sep-09 07:31N 38°43' W 009°08'1 1.8
2018-Sep-09 07:03N 38°42' W 009°08'0 4.5
2018-Sep-09 07:01N 38°42' W 009°09'4 7.6
2018-Sep-09 06:30N 38°41' W 009°13'4 9.9
2018-Sep-09 06:04N 38°40' W 009°19'113.4
2018-Sep-09 06:01N 38°39' W 009°19'714.6
2018-Sep-09 05:30N 38°36' W 009°28'818.8
2018-Sep-09 05:04N 38°38' W 009°39'118.6
2018-Sep-09 05:00N 38°38' W 009°40'918.0
2018-Sep-09 04:31N 38°47' W 009°43'919.8
2018-Sep-09 04:03N 38°56' W 009°44'119.8
2018-Sep-09 04:00N 38°57' W 009°44'1019.7
2018-Sep-09 03:30N 39°07' W 009°45'818.9
2018-Sep-09 03:03N 39°15' W 009°45'118.5
2018-Sep-09 03:01N 39°16' W 009°45'10618.9
2018-Sep-09 03:00N 39°06' W 009°42'   360 / 71008.1 5.4 19.017.419.0
Track history (hours):
 
Tides and Currents Weather Stations Pressure Air Temp Water Temp Dewpoint Dewpoint Depression Visibility Wind Speed Wind Dir Waves Ship Positions

Costa Pacifica

Last reported at 2018-Sep-19 03:03 UTC. Time now 2018-Sep-19 03:25 UTC.
Position N 28°39' W 015°40'.

Length 290 m; draft 8.3 m.

Type: Ship. MMSI: 247258100.

Date/timePositionNaut miles runAvg speedWind from/ knotsBaromVisibWave heightAir tempDewpointWater temp
2018-Sep-19 03:03N 28°39' W 015°40'113.7
2018-Sep-19 02:59N 28°39' W 015°38'713.7
2018-Sep-19 02:30N 28°40' W 015°31'613.8
2018-Sep-19 02:03N 28°41' W 015°24'113.8
2018-Sep-19 02:00N 28°41' W 015°23'713.7
2018-Sep-19 01:30N 28°41' W 015°15'613.4
2018-Sep-19 01:03N 28°42' W 015°09'113.2
2018-Sep-19 01:00N 28°42' W 015°08'6391.8
2018-Sep-19 01:00N 28°36' W 015°06'817.4 060 / 181010.110.8 22.020.524.0
2018-Sep-19 00:30N 28°43' W 015°00'613.3
2018-Sep-19 00:03N 28°43' W 014°53'113.2
2018-Sep-19 00:00N 28°43' W 014°53'713.3
2018-Sep-18 23:30N 28°44' W 014°45'612.9
2018-Sep-18 23:03N 28°45' W 014°38'113.0
2018-Sep-18 22:59N 28°45' W 014°38'713.3
2018-Sep-18 22:30N 28°45' W 014°30'713.5
2018-Sep-18 22:01N 28°46' W 014°23'012.9
2018-Sep-18 22:00N 28°46' W 014°23'913.6
2018-Sep-18 21:19N 28°47' W 014°12'413.7
2018-Sep-18 21:02N 28°47' W 014°08'113.9
2018-Sep-18 21:00N 28°47' W 014°07'714.1
2018-Sep-18 20:30N 28°48' W 013°59'714.0
2018-Sep-18 20:02N 28°48' W 013°52'240.8
2018-Sep-18 20:00N 28°48' W 013°54'3181.5 020 / 301013.1 23.019.924.0
2018-Sep-18 19:59N 28°48' W 013°51'613.6
2018-Sep-18 19:31N 28°49' W 013°44'613.1
2018-Sep-18 19:03N 28°52' W 013°38'1842874.9
2018-Sep-18 19:00N 25°48' W 013°30'186735.2 090 / 181009.1 5.4 24.022.524.0
2018-Sep-18 18:44N 28°54' W 013°34'311.3
2018-Sep-18 18:28N 28°56' W 013°32'2 3.1
2018-Sep-18 17:55N 28°58' W 013°32'0 0.0
2018-Sep-18 17:06N 28°58' W 013°32'0 0.0
2018-Sep-18 16:48N 28°58' W 013°32'0 0.0
2018-Sep-18 16:30N 28°58' W 013°32'0 0.0
2018-Sep-18 14:11N 28°58' W 013°32'0 0.0
2018-Sep-18 13:47N 28°58' W 013°32'0 0.0
2018-Sep-18 13:29N 28°58' W 013°32'0 0.0
2018-Sep-18 12:59N 28°58' W 013°32'0 0.0
2018-Sep-18 12:28N 28°58' W 013°32'4 9.1
2018-Sep-18 12:00N 28°54' W 013°30'410.6 090 / 201009.110.8 23.018.324.0
2018-Sep-18 11:35N 28°58' W 013°32'0 0.0
2018-Sep-18 11:30N 28°58' W 013°32'1 3.3
2018-Sep-18 11:03N 28°57' W 013°32'0 7.3
2018-Sep-18 11:00N 28°56' W 013°32'4 7.9
2018-Sep-18 10:30N 28°54' W 013°28'716.1
2018-Sep-18 10:03N 28°60' W 013°23'118.8
2018-Sep-18 10:00N 29°00' W 013°22'918.9
2018-Sep-18 09:30N 29°08' W 013°16'3321.7
2018-Sep-18 08:00N 29°30' W 012°48'2423.8 010 / 131012.110.8 22.018.924.0
2018-Sep-18 07:00N 29°48' W 012°30'8416.8 360 / 191008.1 5.4 22.020.522.0
2018-Sep-18 02:00N 30°54' W 011°30'13819.8 360 / 141008.110.8 22.020.522.0
2018-Sep-17 19:00N 32°42' W 009°48'3517.4 330 / 191010.1 23.019.924.0
2018-Sep-17 17:00N 33°06' W 009°18'6220.8 320 / 201005.110.8 24.022.524.0
2018-Sep-17 14:00N 33°54' W 008°30'13419.2 330 / 251007.110.8 24.019.425.0
2018-Sep-17 07:00N 35°30' W 006°36'2823.1 080 / 51011.110.8 22.018.925.0
2018-Sep-17 05:47N 35°49' W 006°11'519.4
2018-Sep-17 05:30N 35°52' W 006°05'919.2
2018-Sep-17 05:03N 35°56' W 005°56'119.7
2018-Sep-17 04:59N 35°56' W 005°54'1020.2
2018-Sep-17 04:28N 35°57' W 005°41'819.4
2018-Sep-17 04:03N 35°58' W 005°32'119.4
2018-Sep-17 04:00N 35°58' W 005°30'1019.1
2018-Sep-17 03:30N 36°01' W 005°19'918.9
2018-Sep-17 03:03N 36°03' W 005°09'119.1
2018-Sep-17 03:00N 36°03' W 005°08'4238.7
2018-Sep-17 03:00N 36°00' W 005°06'7819.6 050 / 181009.1 5.4 23.021.524.0
2018-Sep-16 23:00N 36°12' W 003°30'7919.8 050 / 121011.110.8 24.021.025.0
2018-Sep-16 19:00N 36°30' W 001°54'3417.0 050 / 141016.1 24.021.025.0
2018-Sep-16 17:00N 36°54' W 001°24'2517.6 050 / 161011.1 5.4 25.023.624.0
2018-Sep-16 15:34N 37°13' W 001°04'119.0
2018-Sep-16 15:30N 37°14' W 001°03'919.3
2018-Sep-16 15:03N 37°20' W 000°54'119.6
2018-Sep-16 15:00N 37°21' W 000°53'1019.6
2018-Sep-16 14:30N 37°27' W 000°44'1919.3
2018-Sep-16 13:30N 37°41' W 000°28'919.9
2018-Sep-16 13:03N 37°48' W 000°21'120.0
2018-Sep-16 12:59N 37°50' W 000°20'1020.0
2018-Sep-16 12:28N 37°58' W 000°13'3322.1
2018-Sep-16 11:00N 38°24' E 000°12'5116.8 010 / 201013.110.8 24.019.427.0
2018-Sep-16 08:00N 39°06' E 000°48'9118.2 060 / 81016.110.8 24.021.027.0
2018-Sep-16 03:00N 40°18' E 002°00'5627.8 220 / 151005.1 5.4 23.021.524.0
2018-Sep-16 01:00N 41°00' E 002°48'8216.5 340 / 31013.110.8 23.016.526.0
2018-Sep-15 20:00N 42°06' E 003°54'5424.6 280 / 131016.1 22.018.924.0
2018-Sep-15 17:49N 42°48' E 004°39'619.7
2018-Sep-15 17:30N 42°53' E 004°44'1419.4
2018-Sep-15 16:48N 43°03' E 004°57'519.1
2018-Sep-15 16:31N 43°07' E 005°02'918.9
2018-Sep-15 16:03N 43°14' E 005°10'118.7
2018-Sep-15 16:01N 43°14' E 005°10'4232.7
2018-Sep-15 16:00N 43°12' E 005°06'1225.0 220 / 151008.1 5.4 25.023.625.0
2018-Sep-15 15:30N 43°20' E 005°18'1 3.0
2018-Sep-15 15:00N 43°21' E 005°20'0 0.0
2018-Sep-15 14:27N 43°21' E 005°20'0 0.0
2018-Sep-15 14:00N 43°21' E 005°20'0 0.0
2018-Sep-15 13:29N 43°21' E 005°20'0 0.0
2018-Sep-15 13:02N 43°21' E 005°20'0 0.0
2018-Sep-15 12:59N 43°21' E 005°20'0 0.0
2018-Sep-15 12:26N 43°21' E 005°20'0 0.0
2018-Sep-15 11:59N 43°21' E 005°20'0 0.0
2018-Sep-15 11:29N 43°21' E 005°20'0 0.0
2018-Sep-15 10:58N 43°21' E 005°20'0 0.0
2018-Sep-15 10:25N 43°21' E 005°20'3 7.2
2018-Sep-15 10:00N 43°18' E 005°18'323.8 320 / 71017.127.0 24.021.024.0
2018-Sep-15 09:52N 43°21' E 005°20'0 0.0
2018-Sep-15 09:28N 43°21' E 005°20'0 0.0
2018-Sep-15 09:04N 43°21' E 005°20'0 0.0
2018-Sep-15 08:57N 43°21' E 005°20'0 0.0
2018-Sep-15 08:30N 43°21' E 005°20'0 0.0
2018-Sep-15 08:03N 43°21' E 005°20'0 0.0
2018-Sep-15 08:00N 43°21' E 005°20'0 0.0
2018-Sep-15 07:29N 43°21' E 005°20'0 0.0
2018-Sep-15 07:02N 43°21' E 005°20'0 0.0
2018-Sep-15 06:59N 43°21' E 005°20'0 0.0
2018-Sep-15 06:26N 43°21' E 005°20'0 0.0
2018-Sep-15 06:02N 43°21' E 005°20'0 0.0
2018-Sep-15 05:59N 43°21' E 005°20'0 0.4
2018-Sep-15 05:30N 43°21' E 005°20'2 4.2
2018-Sep-15 05:03N 43°21' E 005°17'0 9.3
2018-Sep-15 05:00N 43°21' E 005°17'5 9.9
2018-Sep-15 04:31N 43°16' E 005°13'3413.5
2018-Sep-15 02:00N 42°54' E 005°48'3517.6 320 / 201009.1 5.4 24.022.524.0
2018-Sep-15 00:00N 42°54' E 006°36'626.8 360 / 101009.110.8 24.021.025.0
2018-Sep-14 23:45N 42°60' E 006°40'415.1
2018-Sep-14 23:30N 43°02' E 006°44'715.0
2018-Sep-14 23:03N 43°06' E 006°52'115.0
2018-Sep-14 23:00N 43°06' E 006°52'814.9
2018-Sep-14 22:30N 43°11' E 007°00'614.5
2018-Sep-14 22:04N 43°15' E 007°07'114.4
2018-Sep-14 22:01N 43°15' E 007°08'714.3
2018-Sep-14 21:30N 43°19' E 007°16'613.9
2018-Sep-14 21:03N 43°23' E 007°23'113.7
2018-Sep-14 21:01N 43°24' E 007°24'714.1
2018-Sep-14 20:31N 43°28' E 007°32'614.3
2018-Sep-14 20:04N 43°32' E 007°39'114.5
2018-Sep-14 20:00N 43°32' E 007°40'714.3
2018-Sep-14 19:30N 43°36' E 007°47'614.1
2018-Sep-14 19:03N 43°40' E 007°54'113.8
2018-Sep-14 19:00N 43°41' E 007°55'2101.0
2018-Sep-14 19:00N 43°42' E 007°54'714.1 160 / 11014.1 24.021.026.0
2018-Sep-14 18:30N 43°45' E 008°03'614.1
2018-Sep-14 18:04N 43°49' E 008°10'114.2
2018-Sep-14 18:01N 43°49' E 008°11'714.2
2018-Sep-14 17:31N 43°53' E 008°18'613.9
2018-Sep-14 17:03N 43°59' E 008°23'113.2
2018-Sep-14 17:00N 43°59' E 008°23'156.5
2018-Sep-14 17:00N 44°00' E 008°24'4 8.6 140 / 71008.1 5.4 25.023.626.0
2018-Sep-14 16:30N 44°03' E 008°27'714.6
2018-Sep-14 16:03N 44°09' E 008°32'118.4
2018-Sep-14 16:01N 44°10' E 008°33'714.4
2018-Sep-14 15:30N 44°17' E 008°32'3 6.0
2018-Sep-14 15:03N 44°19' E 008°30'0 4.2
2018-Sep-14 15:00N 44°19' E 008°30'0 0.9
2018-Sep-14 14:30N 44°19' E 008°29'0 0.0
2018-Sep-14 14:00N 44°19' E 008°29'0 0.0
2018-Sep-14 13:30N 44°19' E 008°29'0 0.0
2018-Sep-14 13:02N 44°19' E 008°29'0 0.0
2018-Sep-14 12:59N 44°19' E 008°29'0 0.0
2018-Sep-14 12:29N 44°19' E 008°29'0 0.0
2018-Sep-14 12:02N 44°19' E 008°29'0 0.0
2018-Sep-14 11:59N 44°19' E 008°29'0 0.0
2018-Sep-14 11:29N 44°19' E 008°29'0 0.0
2018-Sep-14 11:01N 44°19' E 008°29'4115.5
2018-Sep-14 11:00N 44°18' E 008°24'4219.8 160 / 71009.110.8 25.013.125.0
2018-Sep-14 10:58N 44°19' E 008°29'0 0.0
2018-Sep-14 10:28N 44°19' E 008°29'0 0.0
2018-Sep-14 10:01N 44°19' E 008°29'0 0.0
2018-Sep-14 09:58N 44°19' E 008°29'0 0.0
2018-Sep-14 09:28N 44°19' E 008°29'0 0.0
2018-Sep-14 09:01N 44°19' E 008°29'0 0.0
2018-Sep-14 08:55N 44°19' E 008°29'0 0.0
2018-Sep-14 08:30N 44°19' E 008°29'0 0.0
2018-Sep-14 08:03N 44°19' E 008°29'0 0.0
2018-Sep-14 08:00N 44°19' E 008°29'0 0.0
2018-Sep-14 07:30N 44°19' E 008°29'0 0.0
2018-Sep-14 07:03N 44°19' E 008°29'0 0.0
2018-Sep-14 07:00N 44°19' E 008°29'41135.8
2018-Sep-14 07:00N 44°18' E 008°24'4 8.9 200 / 21008.1 25.022.027.0
2018-Sep-14 06:30N 44°19' E 008°30'3 7.8
2018-Sep-14 06:03N 44°16' E 008°33'118.0
2018-Sep-14 06:00N 44°15' E 008°33'1019.2
2018-Sep-14 05:31N 44°07' E 008°27'919.2
2018-Sep-14 05:04N 43°59' E 008°20'119.1
2018-Sep-14 05:01N 43°59' E 008°20'918.7
2018-Sep-14 04:31N 43°52' E 008°11'818.8
2018-Sep-14 04:04N 43°46' E 008°02'118.7
2018-Sep-14 04:00N 43°46' E 008°01'919.0
2018-Sep-14 03:31N 43°39' E 007°52'919.1
2018-Sep-14 03:03N 43°32' E 007°44'118.9
2018-Sep-14 03:01N 43°32' E 007°43'1019.1
2018-Sep-14 02:31N 43°25' E 007°34'918.9
2018-Sep-14 02:03N 43°19' E 007°26'118.6
2018-Sep-14 02:00N 43°18' E 007°25'032.1
2018-Sep-14 02:00N 43°18' E 007°24'918.5 090 / 121008.1 5.4 23.021.523.0
2018-Sep-14 01:31N 43°12' E 007°15'919.1
2018-Sep-14 01:04N 43°06' E 007°06'119.0
2018-Sep-14 01:00N 43°06' E 007°05'146.7
2018-Sep-14 01:00N 43°06' E 007°06'1021.3 040 / 51007.110.8 24.021.025.0
2018-Sep-14 00:30N 42°59' E 006°56'919.3
2018-Sep-14 00:03N 42°53' E 006°47'219.2
2018-Sep-13 23:58N 42°52' E 006°45'919.1
2018-Sep-13 23:30N 42°49' E 006°34'1019.2
2018-Sep-13 22:58N 42°44' E 006°21'919.2
2018-Sep-13 22:30N 42°40' E 006°10'7722.1
2018-Sep-13 19:00N 42°06' E 004°36'3618.0 320 / 261012.1 24.021.027.0
2018-Sep-13 17:00N 41°48' E 003°54'6621.9 300 / 141010.110.8 24.021.020.0
2018-Sep-13 14:00N 41°18' E 002°36'822.8 260 / 151008.110.8 24.015.822.0
2018-Sep-13 13:39N 41°25' E 002°41'319.2
2018-Sep-13 13:31N 41°24' E 002°38'919.4
2018-Sep-13 13:04N 41°20' E 002°28'119.3
2018-Sep-13 13:01N 41°20' E 002°26'918.9
2018-Sep-13 12:30N 41°15' E 002°15'511.5
2018-Sep-13 12:04N 41°19' E 002°10'111.4
2018-Sep-13 12:01N 41°20' E 002°10'2 3.5
2018-Sep-13 11:31N 41°21' E 002°11'0 0.0
2018-Sep-13 11:03N 41°21' E 002°11'0 0.0
2018-Sep-13 11:00N 41°21' E 002°11'0 0.0
2018-Sep-13 10:30N 41°21' E 002°11'0 0.0
2018-Sep-13 10:00N 41°21' E 002°11'0 0.0
2018-Sep-13 09:27N 41°21' E 002°11'0 0.0
2018-Sep-13 09:02N 41°21' E 002°11'0 0.0
2018-Sep-13 08:56N 41°21' E 002°11'0 0.0
2018-Sep-13 08:29N 41°21' E 002°11'193389.0
2018-Sep-13 08:00N 41°18' W 002°06'19323915.7 260 / 21011.127.0 24.021.026.0
2018-Sep-13 07:59N 41°21' E 002°11'0 0.0
2018-Sep-13 07:29N 41°21' E 002°11'0 0.0
2018-Sep-13 07:02N 41°21' E 002°11'0 0.0
2018-Sep-13 06:59N 41°21' E 002°11'0 0.0
2018-Sep-13 06:28N 41°21' E 002°11'0 0.0
2018-Sep-13 06:01N 41°21' E 002°11'0 0.0
2018-Sep-13 05:58N 41°21' E 002°11'0 0.8
2018-Sep-13 05:30N 41°21' E 002°10'2 3.4
2018-Sep-13 05:03N 41°19' E 002°10'0 7.4
2018-Sep-13 05:00N 41°19' E 002°10'4 8.0
2018-Sep-13 04:30N 41°15' E 002°12'511.9
2018-Sep-13 04:03N 41°10' E 002°09'113.0
2018-Sep-13 04:00N 41°10' E 002°09'713.4
2018-Sep-13 03:30N 41°04' E 002°05'613.3
2018-Sep-13 03:03N 40°58' E 002°01'113.2
2018-Sep-13 03:00N 40°58' E 002°00'4324.4
2018-Sep-13 03:00N 40°54' E 002°00'5 8.1 090 / 151011.1 5.4 25.023.623.0
2018-Sep-13 02:22N 40°50' E 001°55'613.5
2018-Sep-13 01:57N 40°45' E 001°52'713.9
2018-Sep-13 01:28N 40°39' E 001°48'511.7
2018-Sep-13 01:00N 40°36' E 001°42'14323.8 360 / 21011.110.8 25.018.826.0
2018-Sep-12 19:00N 39°18' W 000°54'7436.9 180 / 161016.110.8 25.022.028.0
2018-Sep-12 17:00N 38°54' E 000°36'2212.2 140 / 151015.1 5.4 25.023.527.0
2018-Sep-12 15:09N 38°35' E 000°22'212.8
2018-Sep-12 15:00N 38°33' E 000°20'1613.3
2018-Sep-12 13:48N 38°20' E 000°09'513.4
2018-Sep-12 13:27N 38°16' E 000°06'913.3
2018-Sep-12 12:47N 38°08' W 000°01'413.2
2018-Sep-12 12:29N 38°05' W 000°04'613.1
2018-Sep-12 12:03N 38°00' W 000°08'696.3
2018-Sep-12 12:00N 38°00' E 000°00'7419.9 080 / 101015.110.8 25.017.026.0
2018-Sep-12 11:59N 37°60' W 000°08'612.9
2018-Sep-12 11:29N 37°54' W 000°13'612.8
2018-Sep-12 11:03N 37°50' W 000°17'112.6
2018-Sep-12 11:00N 37°49' W 000°17'712.7
2018-Sep-12 10:29N 37°44' W 000°22'512.6
2018-Sep-12 10:03N 37°39' W 000°26'112.7
2018-Sep-12 10:00N 37°39' W 000°26'612.8
2018-Sep-12 09:30N 37°34' W 000°31'612.7
2018-Sep-12 09:03N 37°29' W 000°36'112.7
2018-Sep-12 09:00N 37°29' W 000°36'612.4
2018-Sep-12 08:30N 37°25' W 000°42'512.2
2018-Sep-12 08:03N 37°21' W 000°47'112.0
2018-Sep-12 08:00N 37°21' W 000°48'6369.8
2018-Sep-12 08:00N 37°24' W 000°42'1223.6 060 / 161018.1 5.4 27.024.127.0
2018-Sep-12 07:30N 37°17' W 000°54'512.3
2018-Sep-12 07:03N 37°13' W 000°59'112.3
2018-Sep-12 07:00N 37°13' W 000°59'612.3
2018-Sep-12 06:30N 37°09' W 001°05'6612.0
2018-Sep-12 01:00N 36°24' W 002°06'7712.9 060 / 201013.110.8 25.022.024.0
2018-Sep-11 19:00N 36°30' W 003°42'3014.8 050 / 121018.1 24.021.024.0
2018-Sep-11 17:00N 36°36' W 004°18'8 1.9 080 / 21011.110.8 23.021.520.0
2018-Sep-11 13:00N 36°42' W 004°24'0 0.0 150 / 71011.110.8 27.015.721.0
2018-Sep-11 09:00N 36°42' W 004°24'19 3.7 110 / 21018.127.0 26.023.123.0
2018-Sep-11 04:00N 36°24' W 004°18'2010.2 080 / 31010.110.8 23.019.919.0
2018-Sep-11 02:00N 36°06' W 004°06'41 8.7 100 / 181011.110.8 23.019.922.0
2018-Sep-10 21:15N 35°57' W 004°56'313.1
2018-Sep-10 21:00N 35°54' W 004°54'831.7 060 / 191018.1 23.019.921.0
2018-Sep-10 20:45N 35°58' W 005°03'310.9
2018-Sep-10 20:30N 35°58' W 005°06'511.2
2018-Sep-10 20:02N 35°59' W 005°12'011.4
2018-Sep-10 20:00N 35°59' W 005°13'611.6
2018-Sep-10 19:30N 35°59' W 005°20'613.7
2018-Sep-10 19:03N 35°57' W 005°27'114.2
2018-Sep-10 19:00N 35°57' W 005°28'812.8
2018-Sep-10 18:21N 35°54' W 005°38'15 2.0
2018-Sep-10 11:00N 35°42' W 005°48'56 9.4 040 / 91018.127.0 24.021.021.0
2018-Sep-10 05:00N 36°00' W 006°54'3731.9 050 / 231010.1 5.4 22.018.918.0
2018-Sep-10 03:50N 36°10' W 007°38'721.4
2018-Sep-10 03:30N 36°13' W 007°46'1021.2
2018-Sep-10 03:03N 36°16' W 007°57'121.3
2018-Sep-10 03:00N 36°17' W 007°58'1121.4
2018-Sep-10 02:29N 36°20' W 008°11'611.2
2018-Sep-10 02:00N 36°18' W 008°18'996.1 030 / 151011.110.8 21.017.822.0
2018-Sep-10 01:54N 36°24' W 008°27'821.4
2018-Sep-10 01:30N 36°26' W 008°37'1021.5
2018-Sep-10 01:03N 36°29' W 008°48'121.5
2018-Sep-10 01:00N 36°29' W 008°49'1121.3
2018-Sep-10 00:30N 36°32' W 009°02'920.8
2018-Sep-10 00:03N 36°34' W 009°14'119.2
2018-Sep-10 00:00N 36°35' W 009°15'918.9
2018-Sep-09 23:30N 36°41' W 009°24'919.2
2018-Sep-09 23:03N 36°47' W 009°31'119.4
2018-Sep-09 23:00N 36°48' W 009°32'1019.8
2018-Sep-09 22:30N 36°57' W 009°35'919.8
2018-Sep-09 22:03N 37°06' W 009°34'120.2
2018-Sep-09 22:00N 37°07' W 009°34'1019.9
2018-Sep-09 21:30N 37°17' W 009°32'920.0
2018-Sep-09 21:03N 37°26' W 009°32'120.4
2018-Sep-09 21:00N 37°27' W 009°32'1020.4
2018-Sep-09 20:30N 37°37' W 009°30'920.6
2018-Sep-09 20:03N 37°46' W 009°29'120.5
2018-Sep-09 20:00N 37°47' W 009°29'5342.8
2018-Sep-09 20:00N 37°42' W 009°30'1632.0 360 / 271017.1 18.014.622.0
2018-Sep-09 19:30N 37°57' W 009°28'919.9
2018-Sep-09 19:03N 38°06' W 009°27'120.1
2018-Sep-09 19:00N 38°07' W 009°26'5315.3
2018-Sep-09 19:00N 38°12' W 009°24'511.2 350 / 291010.1 5.4 25.022.019.0
2018-Sep-09 18:30N 38°17' W 009°25'920.0
2018-Sep-09 18:03N 38°26' W 009°24'119.6
2018-Sep-09 18:00N 38°27' W 009°24'1019.7
2018-Sep-09 17:30N 38°37' W 009°22'817.5
2018-Sep-09 17:03N 38°41' W 009°14'112.1
2018-Sep-09 17:00N 38°41' W 009°13'4 8.9
2018-Sep-09 16:30N 38°43' W 009°08'0 0.1
2018-Sep-09 16:03N 38°43' W 009°08'0 0.1
2018-Sep-09 16:00N 38°43' W 009°08'0 0.0
2018-Sep-09 15:30N 38°43' W 009°08'0 0.0
2018-Sep-09 15:03N 38°43' W 009°08'0 0.0
2018-Sep-09 15:00N 38°43' W 009°08'0 0.0
2018-Sep-09 14:30N 38°43' W 009°08'0 0.0
2018-Sep-09 13:59N 38°43' W 009°08'0 0.0
2018-Sep-09 13:29N 38°43' W 009°08'1 2.7
2018-Sep-09 13:00N 38°42' W 009°06'1176.7 350 / 51011.110.8 24.015.819.0
2018-Sep-09 12:59N 38°43' W 009°08'0 0.0
2018-Sep-09 12:29N 38°43' W 009°08'0 0.0
2018-Sep-09 12:02N 38°43' W 009°08'0 0.0
2018-Sep-09 11:59N 38°43' W 009°08'0 0.0
2018-Sep-09 11:28N 38°43' W 009°08'0 0.0
2018-Sep-09 11:01N 38°43' W 009°08'0 0.0
2018-Sep-09 10:58N 38°43' W 009°08'0 0.0
2018-Sep-09 10:28N 38°43' W 009°08'0 0.0
2018-Sep-09 10:01N 38°43' W 009°08'164.5
2018-Sep-09 10:00N 38°42' W 009°06'143.9 060 / 61018.127.0 19.015.622.0
2018-Sep-09 09:58N 38°43' W 009°08'0 0.0
2018-Sep-09 09:30N 38°43' W 009°08'0 0.0
2018-Sep-09 09:00N 38°43' W 009°08'0 0.0
2018-Sep-09 08:30N 38°43' W 009°08'0 0.0
2018-Sep-09 08:03N 38°43' W 009°08'0 0.0
2018-Sep-09 08:00N 38°43' W 009°08'0 0.0
2018-Sep-09 07:31N 38°43' W 009°08'1 1.8
2018-Sep-09 07:03N 38°42' W 009°08'0 4.5
2018-Sep-09 07:01N 38°42' W 009°09'4 7.6
2018-Sep-09 06:30N 38°41' W 009°13'4 9.9
2018-Sep-09 06:04N 38°40' W 009°19'113.4
2018-Sep-09 06:01N 38°39' W 009°19'714.6
2018-Sep-09 05:30N 38°36' W 009°28'818.8
2018-Sep-09 05:04N 38°38' W 009°39'118.6
2018-Sep-09 05:00N 38°38' W 009°40'918.0
2018-Sep-09 04:31N 38°47' W 009°43'919.8
2018-Sep-09 04:03N 38°56' W 009°44'119.8
2018-Sep-09 04:00N 38°57' W 009°44'1019.7
2018-Sep-09 03:30N 39°07' W 009°45'818.9
2018-Sep-09 03:03N 39°15' W 009°45'118.5
2018-Sep-09 03:01N 39°16' W 009°45'10618.9
2018-Sep-09 03:00N 39°06' W 009°42'   360 / 71008.1 5.4 19.017.419.0

Dump ship's entire track history